createdAt,value
2019-05-23T00:01:12.355Z,5.30
2019-05-23T00:03:55.704Z,6.10
2019-05-23T00:06:27.157Z,5.97
2019-05-23T00:08:57.364Z,5.43
2019-05-23T00:11:44.890Z,6.30
2019-05-23T00:14:32.741Z,6.10
2019-05-23T00:17:04.494Z,5.87
2019-05-23T00:19:33.825Z,6.47
2019-05-23T00:22:05.935Z,6.40
2019-05-23T00:24:37.262Z,5.83
2019-05-23T00:27:08.705Z,5.67
2019-05-23T00:29:40.620Z,5.80
2019-05-23T00:32:32.256Z,5.57
2019-05-23T00:35:01.870Z,5.73
2019-05-23T00:37:33.089Z,5.80
2019-05-23T00:40:03.983Z,5.80
2019-05-23T00:42:33.785Z,5.77
2019-05-23T00:45:03.835Z,5.43
2019-05-23T00:47:34.477Z,5.73
2019-05-23T00:50:06.133Z,6.33
2019-05-23T00:52:35.748Z,6.23
2019-05-23T00:55:06.088Z,5.60
2019-05-23T00:57:37.237Z,5.07
2019-05-23T01:00:07.015Z,5.73
2019-05-23T01:02:36.663Z,6.27
2019-05-23T01:05:07.464Z,6.60
2019-05-23T01:07:37.088Z,6.30
2019-05-23T01:10:07.209Z,6.10
2019-05-23T01:12:37.462Z,6.20
2019-05-23T01:15:07.195Z,5.70
2019-05-23T01:17:36.631Z,5.63
2019-05-23T01:20:09.240Z,5.87
2019-05-23T01:22:39.319Z,6.33
2019-05-23T01:25:08.855Z,6.00
2019-05-23T01:27:38.883Z,5.77
2019-05-23T01:30:10.097Z,6.10
2019-05-23T01:32:44.410Z,5.40
2019-05-23T01:35:17.134Z,5.83
2019-05-23T01:37:47.844Z,6.00
2019-05-23T01:40:17.445Z,5.63
2019-05-23T01:42:47.276Z,5.77
2019-05-23T01:45:17.709Z,6.10
2019-05-23T01:47:49.967Z,6.23
2019-05-23T01:50:23.362Z,6.40
2019-05-23T01:52:53.137Z,6.00
2019-05-23T01:55:22.650Z,5.67
2019-05-23T01:57:52.394Z,5.83
2019-05-23T02:00:23.720Z,5.97
2019-05-23T02:02:54.536Z,5.63
2019-05-23T02:05:24.984Z,5.87
2019-05-23T02:07:56.623Z,6.10
2019-05-23T02:10:26.574Z,6.20
2019-05-23T02:12:56.608Z,6.57
2019-05-23T02:15:27.084Z,5.80
2019-05-23T02:17:56.794Z,6.43
2019-05-23T02:20:27.252Z,4.70
2019-05-23T02:22:56.771Z,5.47
2019-05-23T02:25:26.313Z,5.03
2019-05-23T02:27:55.567Z,5.10
2019-05-23T02:30:35.811Z,5.07
2019-05-23T02:32:57.589Z,4.90
2019-05-23T02:35:28.584Z,4.07
2019-05-23T02:38:20.446Z,5.73
2019-05-23T02:41:21.097Z,5.40
2019-05-23T02:43:56.280Z,5.67
2019-05-23T02:46:34.460Z,5.93
2019-05-23T02:49:07.265Z,5.57
2019-05-23T02:51:39.307Z,5.33
2019-05-23T02:54:12.094Z,5.60
2019-05-23T02:56:41.593Z,4.73
2019-05-23T02:59:45.577Z,4.20
2019-05-23T03:02:54.720Z,5.20
2019-05-23T03:05:27.853Z,4.83
2019-05-23T03:08:00.810Z,5.33
2019-05-23T03:10:52.649Z,4.77
2019-05-23T03:13:25.119Z,4.57
2019-05-23T03:15:57.285Z,4.50
2019-05-23T03:18:34.051Z,5.33
2019-05-23T03:21:01.660Z,5.73
2019-05-23T03:23:32.768Z,6.03
2019-05-23T03:26:39.820Z,7.00
2019-05-23T03:29:10.969Z,5.97
2019-05-23T03:31:55.541Z,5.37
2019-05-23T03:34:28.229Z,4.83
2019-05-23T03:36:57.674Z,4.83
2019-05-23T03:39:27.546Z,5.60
2019-05-23T03:41:57.654Z,5.67
2019-05-23T03:44:29.132Z,4.57
2019-05-23T03:46:59.478Z,5.23
2019-05-23T03:49:30.580Z,5.67
2019-05-23T03:52:01.039Z,5.20
2019-05-23T03:54:31.885Z,4.70
2019-05-23T03:57:01.633Z,4.13
2019-05-23T03:59:31.352Z,3.50
2019-05-23T04:02:02.307Z,4.30
2019-05-23T04:04:31.759Z,4.83
2019-05-23T04:07:01.277Z,4.80
2019-05-23T04:09:30.843Z,4.97
2019-05-23T04:12:00.233Z,5.23
2019-05-23T04:14:29.817Z,4.50
2019-05-23T04:16:59.208Z,6.37
2019-05-23T04:19:28.918Z,12.40
2019-05-23T04:21:59.172Z,7.73
2019-05-23T04:24:28.841Z,5.20
2019-05-23T04:26:58.195Z,5.20
2019-05-23T04:29:27.865Z,8.67
2019-05-23T04:32:07.776Z,11.07
2019-05-23T04:34:28.809Z,13.10
2019-05-23T04:36:58.436Z,6.20
2019-05-23T04:39:29.136Z,4.60
2019-05-23T04:41:59.671Z,5.03
2019-05-23T04:44:29.732Z,4.63
2019-05-23T04:47:17.949Z,4.47
2019-05-23T04:49:47.608Z,6.50
2019-05-23T04:52:17.537Z,4.63
2019-05-23T04:54:47.177Z,4.90
2019-05-23T04:57:17.943Z,7.17
2019-05-23T04:59:48.114Z,28.27
2019-05-23T05:02:26.213Z,7.27
2019-05-23T05:04:49.603Z,6.13
2019-05-23T05:07:18.855Z,4.50
2019-05-23T05:09:48.502Z,5.27
2019-05-23T05:12:18.384Z,4.70
2019-05-23T05:14:48.360Z,5.20
2019-05-23T05:17:17.529Z,6.87
2019-05-23T05:19:47.179Z,5.40
2019-05-23T05:22:16.729Z,7.30
2019-05-23T05:24:46.073Z,6.93
2019-05-23T05:27:16.880Z,15.50
2019-05-23T05:29:46.177Z,20.27
2019-05-23T05:32:16.790Z,15.67
2019-05-23T05:34:46.404Z,6.40
2019-05-23T05:37:15.656Z,6.10
2019-05-23T05:39:45.320Z,6.23
2019-05-23T05:42:14.501Z,6.17
2019-05-23T05:44:43.711Z,5.30
2019-05-23T05:47:13.881Z,5.63
2019-05-23T05:49:43.498Z,6.17
2019-05-23T05:52:13.272Z,6.20
2019-05-23T05:54:42.569Z,6.23
2019-05-23T05:57:12.245Z,6.30
2019-05-23T05:59:41.606Z,6.27
2019-05-23T06:02:13.710Z,5.87
2019-05-23T06:04:43.324Z,5.97
2019-05-23T06:07:32.493Z,6.27
2019-05-23T06:10:03.630Z,6.10
2019-05-23T06:12:32.867Z,5.93
2019-05-23T06:15:03.951Z,20.07
2019-05-23T06:17:33.786Z,8.30
2019-05-23T06:20:03.043Z,7.37
2019-05-23T06:22:33.718Z,6.97
2019-05-23T06:25:04.730Z,6.77
2019-05-23T06:27:35.064Z,7.03
2019-05-23T06:30:07.391Z,7.00
2019-05-23T06:32:37.757Z,7.27
2019-05-23T06:35:07.305Z,7.67
2019-05-23T06:37:37.280Z,7.57
2019-05-23T06:40:08.237Z,7.23
2019-05-23T06:42:37.416Z,7.63
2019-05-23T06:45:07.997Z,7.90
2019-05-23T06:47:37.381Z,7.40
2019-05-23T06:50:10.433Z,8.03
2019-05-23T06:52:39.709Z,7.90
2019-05-23T06:55:09.284Z,8.17
2019-05-23T06:57:38.669Z,7.03
2019-05-23T07:00:08.366Z,7.90
2019-05-23T07:02:37.835Z,7.30
2019-05-23T07:05:07.304Z,7.67
2019-05-23T07:07:37.509Z,8.13
2019-05-23T07:10:08.083Z,7.53
2019-05-23T07:12:37.322Z,10.33
2019-05-23T07:15:07.300Z,9.70
2019-05-23T07:17:38.704Z,8.10
2019-05-23T07:20:08.769Z,8.97
2019-05-23T07:22:38.061Z,8.33
2019-05-23T07:25:08.939Z,8.63
2019-05-23T07:27:38.585Z,9.83
2019-05-23T07:30:12.013Z,9.27
2019-05-23T07:32:41.356Z,8.90
2019-05-23T07:35:10.683Z,9.57
2019-05-23T07:37:39.972Z,8.73
2019-05-23T07:40:09.559Z,8.83
2019-05-23T07:42:38.702Z,9.17
2019-05-23T07:45:11.759Z,8.60
2019-05-23T07:47:41.501Z,9.40
2019-05-23T07:50:11.680Z,9.40
2019-05-23T07:52:41.492Z,9.80
2019-05-23T07:55:17.046Z,9.63
2019-05-23T07:57:46.688Z,10.07
2019-05-23T08:00:22.999Z,9.47
2019-05-23T08:02:53.782Z,10.03
2019-05-23T08:05:23.580Z,10.00
2019-05-23T08:07:54.051Z,9.83
2019-05-23T08:10:33.845Z,9.63
2019-05-23T08:12:55.182Z,9.53
2019-05-23T08:15:25.345Z,10.03
2019-05-23T08:17:54.983Z,12.73
2019-05-23T08:20:26.108Z,9.90
2019-05-23T08:22:55.548Z,9.07
2019-05-23T08:25:24.733Z,9.30
2019-05-23T08:27:54.414Z,8.70
2019-05-23T08:30:24.755Z,8.33
2019-05-23T08:32:54.540Z,6.07
2019-05-23T08:35:24.220Z,5.87
2019-05-23T08:37:54.850Z,6.07
2019-05-23T08:40:25.355Z,5.80
2019-05-23T08:42:54.581Z,5.83
2019-05-23T08:45:24.043Z,6.53
2019-05-23T08:47:53.634Z,5.93
2019-05-23T08:50:24.083Z,5.60
2019-05-23T08:52:53.271Z,4.53
2019-05-23T08:55:24.256Z,5.10
2019-05-23T08:57:54.415Z,4.70
2019-05-23T09:00:27.361Z,4.63
2019-05-23T09:02:59.021Z,4.40
2019-05-23T09:05:30.331Z,4.63
2019-05-23T09:07:59.987Z,5.33
2019-05-23T09:10:29.750Z,4.37
2019-05-23T09:12:59.502Z,4.67
2019-05-23T09:15:29.009Z,4.63
2019-05-23T09:17:58.524Z,4.40
2019-05-23T09:20:27.884Z,4.20
2019-05-23T09:22:57.097Z,4.10
2019-05-23T09:25:26.410Z,4.80
2019-05-23T09:27:56.209Z,4.30
2019-05-23T09:30:26.116Z,4.10
2019-05-23T09:32:55.308Z,3.90
2019-05-23T09:35:25.059Z,3.37
2019-05-23T09:37:54.234Z,3.50
2019-05-23T09:40:23.973Z,3.73
2019-05-23T09:42:53.358Z,4.10
2019-05-23T09:45:22.830Z,3.87
2019-05-23T09:47:52.361Z,3.90
2019-05-23T09:50:24.935Z,2.87
2019-05-23T09:52:54.246Z,3.50
2019-05-23T09:55:24.160Z,3.57
2019-05-23T09:58:01.521Z,3.43
2019-05-23T10:00:31.160Z,3.70
2019-05-23T10:03:02.236Z,3.73
2019-05-23T10:05:42.935Z,3.93
2019-05-23T10:08:02.578Z,3.90
2019-05-23T10:10:32.850Z,3.90
2019-05-23T10:13:02.048Z,4.20
2019-05-23T10:15:50.759Z,4.13
2019-05-23T10:18:21.221Z,3.60
2019-05-23T10:20:50.679Z,3.73
2019-05-23T10:23:20.190Z,4.00
2019-05-23T10:25:49.426Z,4.50
2019-05-23T10:28:18.703Z,3.77
2019-05-23T10:30:48.030Z,4.03
2019-05-23T10:33:17.751Z,4.27
2019-05-23T10:35:59.614Z,3.73
2019-05-23T10:38:17.959Z,3.43
2019-05-23T10:40:47.641Z,3.60
2019-05-23T10:43:16.961Z,3.67
2019-05-23T10:45:46.556Z,3.70
2019-05-23T10:48:16.754Z,3.70
2019-05-23T10:50:46.451Z,4.10
2019-05-23T10:53:15.957Z,3.97
2019-05-23T10:55:45.224Z,3.80
2019-05-23T10:58:15.440Z,4.00
2019-05-23T11:00:47.210Z,3.90
2019-05-23T11:03:17.883Z,4.23
2019-05-23T11:05:47.439Z,3.37
2019-05-23T11:08:17.940Z,3.63
2019-05-23T11:10:48.365Z,4.40
2019-05-23T11:13:17.826Z,4.27
2019-05-23T11:15:47.477Z,4.40
2019-05-23T11:18:17.153Z,3.90
2019-05-23T11:20:46.477Z,3.90
2019-05-23T11:23:20.141Z,4.40
2019-05-23T11:25:49.611Z,4.10
2019-05-23T11:28:19.076Z,3.90
2019-05-23T11:30:57.269Z,3.57
2019-05-23T11:33:27.114Z,5.50
2019-05-23T11:35:56.605Z,5.00
2019-05-23T11:38:26.640Z,2.90
2019-05-23T11:40:56.139Z,2.90
2019-05-23T11:43:25.425Z,2.63
2019-05-23T11:46:02.051Z,2.90
2019-05-23T11:48:32.050Z,2.70
2019-05-23T11:51:01.626Z,3.03
2019-05-23T11:53:31.603Z,3.00
2019-05-23T11:56:00.757Z,3.20
2019-05-23T11:58:32.540Z,3.30
2019-05-23T12:01:21.578Z,3.17
2019-05-23T12:03:55.913Z,2.93
2019-05-23T12:06:27.145Z,3.03
2019-05-23T12:08:56.718Z,3.47
2019-05-23T12:11:26.366Z,3.40
2019-05-23T12:13:55.845Z,2.90
2019-05-23T12:16:25.356Z,2.50
2019-05-23T12:18:54.972Z,2.97
2019-05-23T12:21:25.244Z,3.00
2019-05-23T12:23:54.422Z,2.43
2019-05-23T12:26:23.850Z,2.50
2019-05-23T12:28:53.189Z,2.60
2019-05-23T12:31:23.457Z,2.90
2019-05-23T12:33:52.688Z,3.03
2019-05-23T12:36:22.305Z,2.50
2019-05-23T12:38:51.556Z,2.47
2019-05-23T12:41:20.935Z,2.30
2019-05-23T12:43:50.103Z,2.53
2019-05-23T12:46:19.425Z,2.20
2019-05-23T12:49:01.173Z,1.90
2019-05-23T12:51:32.783Z,2.40
2019-05-23T12:54:02.377Z,2.60
2019-05-23T12:56:32.032Z,2.50
2019-05-23T12:59:03.064Z,2.47
2019-05-23T13:01:32.877Z,2.40
2019-05-23T13:04:02.508Z,2.00
2019-05-23T13:06:32.985Z,2.60
2019-05-23T13:09:02.486Z,2.47
2019-05-23T13:11:32.004Z,2.30
2019-05-23T13:14:01.265Z,2.50
2019-05-23T13:16:30.799Z,2.20
2019-05-23T13:19:00.134Z,2.37
2019-05-23T13:21:29.292Z,2.30
2019-05-23T13:23:58.877Z,2.40
2019-05-23T13:26:28.377Z,2.20
2019-05-23T13:28:57.836Z,5.40
2019-05-23T13:31:26.977Z,2.47
2019-05-23T13:33:56.272Z,2.57
2019-05-23T13:36:25.653Z,2.33
2019-05-23T13:38:55.010Z,2.50
2019-05-23T13:41:24.676Z,2.13
2019-05-23T13:43:54.365Z,2.30
2019-05-23T13:46:23.825Z,2.10
2019-05-23T13:48:53.311Z,2.83
2019-05-23T13:51:22.866Z,2.17
2019-05-23T13:53:52.570Z,2.20
2019-05-23T13:56:21.925Z,2.40
2019-05-23T13:58:51.635Z,3.87
2019-05-23T14:01:21.079Z,2.23
2019-05-23T14:03:50.711Z,2.43
2019-05-23T14:06:20.420Z,1.90
2019-05-23T14:08:49.677Z,2.70
2019-05-23T14:11:19.805Z,2.30
2019-05-23T14:13:58.335Z,2.37
2019-05-23T14:16:20.474Z,2.13
2019-05-23T14:18:50.112Z,1.93
2019-05-23T14:21:19.468Z,1.90
2019-05-23T14:23:48.639Z,2.13
2019-05-23T14:26:19.264Z,2.17
2019-05-23T14:28:48.852Z,2.50
2019-05-23T14:31:20.106Z,2.20
2019-05-23T14:34:03.908Z,2.07
2019-05-23T14:36:43.765Z,2.20
2019-05-23T14:39:26.000Z,2.23
2019-05-23T14:42:04.209Z,1.93
2019-05-23T14:44:33.563Z,1.77
2019-05-23T14:47:23.258Z,1.70
2019-05-23T14:50:05.549Z,2.40
2019-05-23T14:52:39.441Z,2.10
2019-05-23T14:55:11.418Z,2.50
2019-05-23T14:57:41.265Z,2.13
2019-05-23T15:00:11.888Z,2.00
2019-05-23T15:02:41.765Z,2.10
2019-05-23T15:05:11.712Z,1.60
2019-05-23T15:07:41.015Z,3.00
2019-05-23T15:10:11.515Z,2.60
2019-05-23T15:12:40.982Z,2.37
2019-05-23T15:15:11.021Z,2.20
2019-05-23T15:17:40.204Z,2.10
2019-05-23T15:20:09.613Z,2.30
2019-05-23T15:22:39.004Z,1.80
2019-05-23T15:25:08.567Z,1.70
2019-05-23T15:27:38.176Z,2.00
2019-05-23T15:30:07.779Z,1.97
2019-05-23T15:32:37.313Z,2.00
2019-05-23T15:35:07.014Z,2.60
2019-05-23T15:37:36.375Z,9.37
2019-05-23T15:40:06.325Z,2.97
2019-05-23T15:42:35.493Z,2.00
2019-05-23T15:45:05.487Z,2.30
2019-05-23T15:47:35.989Z,2.13
2019-05-23T15:50:11.474Z,2.07
2019-05-23T15:52:54.296Z,1.90
2019-05-23T15:55:31.940Z,1.80
2019-05-23T15:58:09.393Z,2.03
2019-05-23T16:01:03.947Z,1.80
2019-05-23T16:04:04.677Z,2.00
2019-05-23T16:06:35.991Z,1.70
2019-05-23T16:09:25.631Z,1.77
2019-05-23T16:11:41.050Z,1.90
2019-05-23T16:14:10.634Z,1.70
2019-05-23T16:16:40.417Z,1.87
2019-05-23T16:19:10.017Z,2.07
2019-05-23T16:21:40.413Z,4.57
2019-05-23T16:24:10.031Z,3.63
2019-05-23T16:26:39.493Z,1.80
2019-05-23T16:29:10.730Z,1.90
2019-05-23T16:31:40.220Z,2.07
2019-05-23T16:34:09.490Z,1.90
2019-05-23T16:36:38.685Z,1.87
2019-05-23T16:39:08.769Z,2.00
2019-05-23T16:41:38.011Z,1.67
2019-05-23T16:44:08.009Z,1.90
2019-05-23T16:46:37.232Z,1.93
2019-05-23T16:49:06.918Z,2.20
2019-05-23T16:51:36.695Z,1.80
2019-05-23T16:54:06.345Z,1.83
2019-05-23T16:56:46.060Z,1.83
2019-05-23T16:59:40.473Z,2.03
2019-05-23T17:02:34.725Z,1.80
2019-05-23T17:05:23.340Z,5.07
2019-05-23T17:08:11.649Z,9.97
2019-05-23T17:10:55.692Z,2.57
2019-05-23T17:13:35.625Z,2.10
2019-05-23T17:16:11.270Z,1.80
2019-05-23T17:18:47.005Z,1.93
2019-05-23T17:21:23.386Z,2.00
2019-05-23T17:24:11.661Z,2.33
2019-05-23T17:27:00.137Z,2.00
2019-05-23T17:29:39.436Z,2.20
2019-05-23T17:32:10.676Z,2.00
2019-05-23T17:34:40.189Z,2.20
2019-05-23T17:37:10.415Z,2.20
2019-05-23T17:39:40.015Z,1.70
2019-05-23T17:42:09.510Z,1.80
2019-05-23T17:44:39.179Z,2.23
2019-05-23T17:47:08.671Z,1.90
2019-05-23T17:49:39.317Z,1.93
2019-05-23T17:52:08.782Z,2.27
2019-05-23T17:54:38.271Z,2.00
2019-05-23T17:57:09.045Z,1.83
2019-05-23T17:59:38.447Z,2.00
2019-05-23T18:02:08.733Z,6.77
2019-05-23T18:04:38.386Z,2.50
2019-05-23T18:07:08.320Z,1.90
2019-05-23T18:09:38.493Z,3.03
2019-05-23T18:12:09.045Z,2.77
2019-05-23T18:14:39.061Z,2.00
2019-05-23T18:17:09.453Z,2.10
2019-05-23T18:19:39.486Z,2.20
2019-05-23T18:22:10.745Z,1.80
2019-05-23T18:24:40.604Z,2.70
2019-05-23T18:27:10.925Z,2.30
2019-05-23T18:29:40.788Z,2.10
2019-05-23T18:32:15.505Z,2.30
2019-05-23T18:34:44.812Z,2.20
2019-05-23T18:37:15.913Z,1.90
2019-05-23T18:39:45.109Z,2.17
2019-05-23T18:42:14.703Z,2.00
2019-05-23T18:44:44.806Z,2.13
2019-05-23T18:47:22.225Z,1.83
2019-05-23T18:49:51.431Z,2.20
2019-05-23T18:52:20.625Z,2.20
2019-05-23T18:54:49.818Z,2.77
2019-05-23T18:57:19.933Z,3.00
2019-05-23T18:59:49.281Z,2.70
2019-05-23T19:02:18.662Z,2.47
2019-05-23T19:04:48.439Z,2.53
2019-05-23T19:07:18.406Z,22.27
2019-05-23T19:09:48.001Z,5.23
2019-05-23T19:12:17.232Z,3.70
2019-05-23T19:14:46.452Z,3.30
2019-05-23T19:17:15.819Z,4.40
2019-05-23T19:19:45.716Z,2.83
2019-05-23T19:22:15.809Z,3.40
2019-05-23T19:24:45.620Z,3.00
2019-05-23T19:27:15.637Z,2.83
2019-05-23T19:29:45.221Z,2.50
2019-05-23T19:32:14.725Z,2.40
2019-05-23T19:34:44.139Z,2.70
2019-05-23T19:37:14.116Z,2.93
2019-05-23T19:39:43.706Z,2.77
2019-05-23T19:42:14.815Z,2.77
2019-05-23T19:44:44.211Z,2.30
2019-05-23T19:47:13.621Z,2.20
2019-05-23T19:50:01.879Z,2.37
2019-05-23T19:52:31.133Z,2.00
2019-05-23T19:55:00.595Z,2.03
2019-05-23T19:57:31.334Z,2.33
2019-05-23T20:00:00.897Z,3.00
2019-05-23T20:02:37.495Z,3.40
2019-05-23T20:05:14.720Z,6.27
2019-05-23T20:07:43.939Z,18.83
2019-05-23T20:10:14.249Z,3.00
2019-05-23T20:12:43.818Z,2.77
2019-05-23T20:15:13.497Z,2.60
2019-05-23T20:17:43.008Z,2.80
2019-05-23T20:20:12.609Z,2.97
2019-05-23T20:22:42.062Z,2.90
2019-05-23T20:25:11.828Z,2.97
2019-05-23T20:27:43.379Z,2.67
2019-05-23T20:30:16.752Z,2.90
2019-05-23T20:32:46.069Z,2.43
2019-05-23T20:35:15.840Z,2.70
2019-05-23T20:37:45.129Z,3.00
2019-05-23T20:40:14.630Z,2.50
2019-05-23T20:42:44.166Z,2.40
2019-05-23T20:45:15.204Z,2.60
2019-05-23T20:47:44.787Z,2.57
2019-05-23T20:50:14.296Z,2.30
2019-05-23T20:52:43.749Z,2.50
2019-05-23T20:55:13.470Z,2.70
2019-05-23T20:57:42.903Z,10.00
2019-05-23T21:00:13.875Z,7.53
2019-05-23T21:02:43.054Z,2.90
2019-05-23T21:05:12.359Z,2.67
2019-05-23T21:07:41.741Z,2.60
2019-05-23T21:10:14.157Z,3.07
2019-05-23T21:12:43.675Z,2.90
2019-05-23T21:15:12.880Z,2.70
2019-05-23T21:17:42.040Z,2.63
2019-05-23T21:20:11.341Z,2.70
2019-05-23T21:22:40.977Z,2.90
2019-05-23T21:25:10.647Z,3.07
2019-05-23T21:27:40.051Z,2.90
2019-05-23T21:30:09.640Z,2.90
2019-05-23T21:32:39.137Z,3.13
2019-05-23T21:35:08.891Z,2.73
2019-05-23T21:37:38.083Z,2.80
2019-05-23T21:40:10.546Z,2.83
2019-05-23T21:42:47.617Z,2.90
2019-05-23T21:45:11.612Z,3.10
2019-05-23T21:47:41.179Z,2.90
2019-05-23T21:50:10.633Z,8.77
2019-05-23T21:52:40.030Z,3.27
2019-05-23T21:55:10.912Z,3.00
2019-05-23T21:57:40.437Z,2.97
2019-05-23T22:00:12.365Z,2.77
2019-05-23T22:02:41.661Z,2.90
2019-05-23T22:05:14.810Z,3.20
2019-05-23T22:07:44.276Z,2.90
2019-05-23T22:10:13.846Z,3.00
2019-05-23T22:12:43.330Z,2.90
2019-05-23T22:15:17.353Z,3.00
2019-05-23T22:17:47.791Z,3.10
2019-05-23T22:20:17.056Z,3.23
2019-05-23T22:22:46.258Z,2.97
2019-05-23T22:25:18.398Z,2.80
2019-05-23T22:27:47.765Z,2.80
2019-05-23T22:30:17.356Z,2.90
2019-05-23T22:32:46.953Z,2.83
2019-05-23T22:35:19.719Z,3.13
2019-05-23T22:37:49.089Z,4.27
2019-05-23T22:40:18.249Z,3.10
2019-05-23T22:42:47.653Z,3.13
2019-05-23T22:45:19.350Z,3.10
2019-05-23T22:47:48.821Z,2.83
2019-05-23T22:50:18.517Z,2.93
2019-05-23T22:52:47.990Z,2.93
2019-05-23T22:55:17.149Z,2.80
2019-05-23T22:57:46.419Z,3.10
2019-05-23T23:00:18.095Z,2.90
2019-05-23T23:02:47.269Z,2.37
2019-05-23T23:05:16.496Z,2.70
2019-05-23T23:07:45.827Z,2.80
2019-05-23T23:10:15.356Z,2.67
2019-05-23T23:12:44.516Z,2.83
2019-05-23T23:15:13.956Z,2.67
2019-05-23T23:17:43.133Z,2.90
2019-05-23T23:20:12.618Z,3.37
2019-05-23T23:22:41.775Z,2.87
2019-05-23T23:25:11.265Z,3.30
2019-05-23T23:27:40.417Z,2.80
2019-05-23T23:30:10.943Z,3.17
2019-05-23T23:32:40.473Z,2.63
2019-05-23T23:35:09.660Z,2.87
2019-05-23T23:37:38.817Z,2.80
2019-05-23T23:40:09.435Z,3.00
2019-05-23T23:42:39.156Z,2.90
2019-05-23T23:45:26.445Z,2.70
2019-05-23T23:48:13.287Z,3.30
2019-05-23T23:51:00.501Z,3.53
2019-05-23T23:53:47.808Z,2.97
2019-05-23T23:56:35.048Z,3.20
2019-05-23T23:59:03.445Z,2.87
